Time;durP1;ratioP1;P1;durP2;ratioP2;P2;SDS_P1;SDS_P2;PMS_P1;PMS_P2;Temp;Humidity;BMP_temperature;BMP_pressure;BME280_temperature;BME280_humidity;BME280_pressure;Samples;Min_cycle;Max_cycle;Signal;HPM_P1;HPM_P2
2023/07/30 00:03:46;;;;;;;2.45;1.40;;;;;;;17.03;100.00;152971.59;10565437;28;20106;-74
2023/07/30 00:08:48;;;;;;;2.90;1.52;;;;;;;16.86;100.00;152928.78;10582499;28;20036;-74
2023/07/30 00:13:50;;;;;;;3.05;1.60;;;;;;;16.85;100.00;152926.22;10582343;28;20101;-74
2023/07/30 00:18:52;;;;;;;1.50;1.30;;;;;;;16.81;100.00;152915.81;10582852;28;20048;-74
2023/07/30 00:23:53;;;;;;;1.50;1.17;;;;;;;16.79;100.00;152910.66;10582742;28;20036;-74
2023/07/30 00:28:55;;;;;;;2.35;1.10;;;;;;;16.93;100.00;152946.97;10583719;28;20405;-74
2023/07/30 00:33:57;;;;;;;2.40;1.20;;;;;;;16.89;100.00;152937.88;10566561;28;20118;-74
2023/07/30 00:38:59;;;;;;;1.65;1.50;;;;;;;16.80;100.00;152913.25;10583955;28;20040;-73
2023/07/30 00:44:00;;;;;;;2.38;1.38;;;;;;;16.78;100.00;152908.09;10564682;28;20039;-73
2023/07/30 00:49:02;;;;;;;2.13;1.40;;;;;;;16.84;100.00;152924.91;10582812;28;20096;-73
2023/07/30 00:54:04;;;;;;;2.60;1.50;;;;;;;16.78;100.00;152908.09;10581706;28;20085;-73
2023/07/30 00:59:06;;;;;;;2.28;1.60;;;;;;;16.67;100.00;152880.75;10590351;28;20123;-72
2023/07/30 01:04:09;;;;;;;2.45;1.92;;;;;;;16.32;100.00;152791.28;10571218;28;20135;-73
2023/07/30 01:09:11;;;;;;;1.80;1.50;;;;;;;16.20;100.00;152760.16;10588711;28;20043;-73
2023/07/30 01:14:14;;;;;;;2.65;1.73;;;;;;;16.08;100.00;152731.66;10570865;28;20432;-72
2023/07/30 01:19:16;;;;;;;1.83;1.70;;;;;;;16.04;100.00;152721.28;10588927;28;20120;-73
2023/07/30 01:24:18;;;;;;;2.42;1.50;;;;;;;16.23;100.00;152769.25;10588996;28;20397;-73
2023/07/30 01:29:27;;;;;;;2.28;1.60;;;;;;;16.07;100.00;152727.75;10588531;28;20051;-73
2023/07/30 01:34:34;;;;;;;2.00;1.88;;;;;;;15.86;100.00;152675.94;10570164;28;20054;-74
2023/07/30 01:39:39;;;;;;;1.63;1.52;;;;;;;15.78;100.00;152655.19;10588093;28;20089;-73
2023/07/30 01:44:41;;;;;;;2.30;1.73;;;;;;;15.74;100.00;152643.50;10569066;28;20043;-74
2023/07/30 01:49:43;;;;;;;1.52;1.42;;;;;;;15.71;100.00;152635.72;10587335;28;20039;-73
2023/07/30 01:54:45;;;;;;;1.90;1.70;;;;;;;15.85;100.00;152672.06;10568638;28;20059;-74
2023/07/30 01:59:46;;;;;;;3.30;1.63;;;;;;;15.79;100.00;152657.75;10586574;28;20082;-74
2023/07/30 02:04:48;;;;;;;2.78;2.00;;;;;;;15.73;100.00;152642.22;10568537;28;20047;-73
2023/07/30 02:09:50;;;;;;;2.95;2.05;;;;;;;15.66;100.00;152622.78;10567958;28;20138;-73
2023/07/30 02:14:52;;;;;;;2.95;1.65;;;;;;;15.64;100.00;152618.91;10568772;28;20048;-73
2023/07/30 02:19:54;;;;;;;1.95;1.75;;;;;;;15.73;100.00;152640.94;10568109;28;20073;-72
2023/07/30 02:24:57;;;;;;;2.83;1.77;;;;;;;15.64;100.00;152620.19;10586686;28;20118;-73
2023/07/30 02:29:58;;;;;;;1.45;1.30;;;;;;;15.67;100.00;152625.34;10586933;28;20047;-73
2023/07/30 02:35:00;;;;;;;4.93;2.10;;;;;;;15.81;100.00;152661.69;10586367;28;20050;-73
2023/07/30 02:40:04;;;;;;;3.13;1.95;;;;;;;16.08;100.00;152731.66;10585742;28;20069;-72
2023/07/30 02:45:06;;;;;;;2.67;1.70;;;;;;;15.91;100.00;152687.59;10585704;28;20084;-73
2023/07/30 02:50:09;;;;;;;2.20;2.00;;;;;;;15.72;100.00;152639.66;10567210;28;20450;-72
2023/07/30 02:55:10;;;;;;;2.13;1.77;;;;;;;15.75;100.00;152647.38;10567785;28;20039;-73
2023/07/30 03:00:12;;;;;;;1.80;1.70;;;;;;;15.85;100.00;152672.06;10585153;28;20092;-73
2023/07/30 03:05:15;;;;;;;2.20;1.60;;;;;;;15.85;100.00;152673.34;10566376;28;20419;-73
2023/07/30 03:10:18;;;;;;;1.20;1.10;;;;;;;16.19;100.00;152758.88;10549405;28;20054;-73
2023/07/30 03:15:20;;;;;;;3.20;1.48;;;;;;;16.38;100.00;152808.16;10565566;28;20043;-73
2023/07/30 03:20:22;;;;;;;2.00;1.42;;;;;;;16.18;100.00;152756.28;10583711;28;20471;-75
2023/07/30 03:25:29;;;;;;;2.65;1.20;;;;;;;16.22;100.00;152765.38;10584614;28;20056;-74
2023/07/30 03:30:30;;;;;;;2.58;1.35;;;;;;;16.52;100.00;152843.19;10565805;28;20043;-74
2023/07/30 03:35:32;;;;;;;2.53;1.60;;;;;;;16.25;100.00;152773.16;10566000;28;20043;-73
2023/07/30 03:40:34;;;;;;;2.03;1.17;;;;;;;16.42;100.00;152815.91;10583103;28;20048;-74
2023/07/30 03:45:36;;;;;;;3.42;1.52;;;;;;;16.11;100.00;152739.47;10564662;28;20134;-74
2023/07/30 03:50:38;;;;;;;2.22;1.50;;;;;;;16.02;100.00;152716.06;10565031;28;20047;-74
2023/07/30 03:55:40;;;;;;;1.60;1.50;;;;;;;16.04;100.00;152721.28;10564597;28;20476;-73
2023/07/30 04:00:42;;;;;;;2.42;2.00;;;;;;;16.25;100.00;152773.16;10564691;28;20048;-71
2023/07/30 04:05:44;;;;;;;2.45;1.40;;;;;;;16.18;100.00;152755.00;10582450;28;20429;-71
2023/07/30 04:10:45;;;;;;;1.60;1.40;;;;;;;16.57;100.00;152856.13;10564693;28;20462;-70
2023/07/30 04:15:48;;;;;;;1.45;1.30;;;;;;;16.28;100.00;152780.91;10583283;28;20512;-71
2023/07/30 04:20:50;;;;;;;1.95;1.80;;;;;;;16.29;100.00;152783.50;10565000;28;20051;-70
2023/07/30 04:25:52;;;;;;;1.45;1.35;;;;;;;16.58;100.00;152857.44;10563996;28;20052;-70
2023/07/30 04:30:53;;;;;;;2.25;1.20;;;;;;;16.79;100.00;152910.66;10585151;28;20449;-71
2023/07/30 04:35:55;;;;;;;1.75;1.40;;;;;;;16.54;100.00;152848.34;10573008;28;20071;-71
2023/07/30 04:40:58;;;;;;;2.40;1.70;;;;;;;16.28;100.00;152782.19;10555921;28;20058;-71
2023/07/30 04:46:01;;;;;;;2.45;1.65;;;;;;;16.46;100.00;152827.59;10572400;28;20040;-70
2023/07/30 04:51:05;;;;;;;2.00;1.63;;;;;;;16.73;100.00;152895.06;10572422;28;20044;-72
2023/07/30 04:56:07;;;;;;;2.78;1.45;;;;;;;16.50;100.00;152837.97;10571611;28;20089;-71
2023/07/30 05:01:09;;;;;;;2.15;1.52;;;;;;;16.67;100.00;152880.75;10572266;28;20044;-70
2023/07/30 05:06:11;;;;;;;2.80;1.58;;;;;;;17.06;100.00;152980.69;10589552;28;20036;-71
2023/07/30 05:11:13;;;;;;;1.52;1.30;;;;;;;17.28;100.00;153036.47;10572338;28;20051;-71
2023/07/30 05:16:14;;;;;;;2.15;1.95;;;;;;;17.35;100.00;153054.66;10589375;28;20110;-71
2023/07/30 05:21:16;;;;;;;3.15;1.48;;;;;;;17.71;100.00;153144.16;10571414;28;20048;-71
2023/07/30 05:26:18;;;;;;;3.53;1.30;;;;;;;18.14;100.00;153254.56;10591055;28;20043;-72
2023/07/30 05:31:20;;;;;;;2.10;1.60;;;;;;;18.15;100.00;153258.47;10572239;28;20051;-71
2023/07/30 05:36:22;;;;;;;1.63;1.52;;;;;;;18.07;100.00;153237.69;10589699;28;20404;-71
2023/07/30 05:41:24;;;;;;;2.00;1.80;;;;;;;17.97;100.00;153210.41;10569822;28;20050;-72
2023/07/30 05:46:26;;;;;;;2.03;1.48;;;;;;;18.12;100.00;153249.38;10570403;28;20047;-72
2023/07/30 05:51:28;;;;;;;2.30;1.45;;;;;;;18.15;100.00;153257.19;10588540;28;20046;-71
2023/07/30 05:56:30;;;;;;;3.10;1.40;;;;;;;18.07;100.00;153237.69;10588296;28;20405;-71
2023/07/30 06:01:32;;;;;;;2.63;1.48;;;;;;;18.06;100.00;153235.13;10570781;28;20422;-71
2023/07/30 06:06:34;;;;;;;1.50;1.40;;;;;;;17.98;100.00;153214.34;10588056;28;20063;-71
2023/07/30 06:11:36;;;;;;;1.50;1.40;;;;;;;18.36;100.00;153311.69;10587642;28;20373;-71
2023/07/30 06:16:38;;;;;;;2.70;1.70;;;;;;;18.48;100.00;153340.25;10587004;28;20046;-71
2023/07/30 06:21:40;;;;;;;2.47;1.63;;;;;;;18.69;100.00;153393.53;10586319;28;20099;-71
2023/07/30 06:26:41;;;;;;;1.80;1.70;;;;;;;18.85;100.00;153435.09;10586161;28;20040;-71
2023/07/30 06:31:43;;;;;;;1.58;1.48;;;;;;;19.43;100.00;153583.19;10585642;28;20067;-71
2023/07/30 06:36:45;;;;;;;2.00;1.90;;;;;;;19.15;100.00;153511.75;10586314;28;20039;-72
2023/07/30 06:41:47;;;;;;;2.13;1.98;;;;;;;19.25;100.00;153536.41;10585519;28;20058;-73
2023/07/30 06:46:49;;;;;;;1.70;1.60;;;;;;;19.39;100.00;153572.84;10567213;28;20101;-73
2023/07/30 06:51:51;;;;;;;1.80;1.40;;;;;;;20.12;100.00;153758.72;10566927;28;20464;-73
2023/07/30 06:56:53;;;;;;;1.50;1.40;;;;;;;20.27;99.13;153797.69;10567814;28;20040;-73
2023/07/30 07:01:55;;;;;;;1.50;1.40;;;;;;;20.59;97.14;153878.38;10585947;28;20039;-73
2023/07/30 07:06:57;;;;;;;1.50;1.40;;;;;;;20.57;95.42;153873.16;10566736;28;20059;-74
2023/07/30 07:11:59;;;;;;;1.48;1.30;;;;;;;20.78;97.78;153926.50;10567616;28;20118;-75
2023/07/30 07:17:01;;;;;;;1.40;1.25;;;;;;;21.28;89.55;154053.94;10585340;28;20039;-74
2023/07/30 07:22:04;;;;;;;0.73;0.70;;;;;;;21.61;85.24;154139.88;10586350;28;20040;-73
2023/07/30 07:27:07;;;;;;;1.40;1.30;;;;;;;21.77;86.35;154178.91;10585590;28;20051;-74
2023/07/30 07:32:11;;;;;;;3.33;0.95;;;;;;;22.21;80.68;154292.19;10585410;28;20051;-72
2023/07/30 07:37:15;;;;;;;1.65;0.70;;;;;;;22.40;77.28;154341.69;10567596;28;20052;-72
2023/07/30 07:42:17;;;;;;;1.20;0.77;;;;;;;22.65;78.48;154405.44;10585490;28;20035;-73
2023/07/30 07:47:19;;;;;;;1.90;1.05;;;;;;;22.44;76.70;154349.47;10586092;28;20551;-73
2023/07/30 07:52:21;;;;;;;1.63;0.93;;;;;;;22.39;75.47;154337.75;10568062;28;20043;-72
2023/07/30 07:57:23;;;;;;;2.22;0.80;;;;;;;22.27;74.37;154306.50;10575005;28;20069;-72
2023/07/30 08:02:25;;;;;;;0.80;0.80;;;;;;;22.02;76.78;154242.69;10560347;28;20392;-73
2023/07/30 08:07:27;;;;;;;1.17;1.00;;;;;;;22.28;78.60;154310.44;10558371;28;20111;-73
2023/07/30 08:12:32;;;;;;;1.17;0.80;;;;;;;22.73;74.26;154425.00;10528840;28;20036;-73
2023/07/30 08:17:34;;;;;;;1.00;0.90;;;;;;;22.91;70.88;154471.91;10561045;28;20040;-74
2023/07/30 08:22:36;;;;;;;0.88;0.88;;;;;;;22.98;68.66;154488.88;10545036;28;20110;-72
2023/07/30 08:27:38;;;;;;;1.08;0.90;;;;;;;22.69;70.17;154414.56;10525585;28;20494;-72
2023/07/30 08:32:41;;;;;;;1.83;0.95;;;;;;;22.70;71.85;154415.88;10564236;28;20047;-73
2023/07/30 08:37:43;;;;;;;0.80;0.80;;;;;;;23.15;69.46;154533.16;10524956;28;20044;-73
2023/07/30 08:42:45;;;;;;;1.40;0.98;;;;;;;23.03;68.02;154501.88;10527398;28;20036;-73
2023/07/30 08:47:48;;;;;;;1.27;1.00;;;;;;;22.86;68.93;154458.84;10543878;28;20524;-74
2023/07/30 08:52:50;;;;;;;1.15;1.05;;;;;;;23.31;68.26;154572.22;10539930;28;20043;-73
2023/07/30 08:57:52;;;;;;;1.15;0.90;;;;;;;23.45;67.36;154607.38;10539551;28;20040;-73
2023/07/30 09:02:58;;;;;;;2.38;0.90;;;;;;;23.76;66.60;154686.91;10540131;28;20051;-73
2023/07/30 09:08:00;;;;;;;1.20;1.00;;;;;;;23.91;64.43;154726.00;10542519;28;20374;-74
2023/07/30 09:13:02;;;;;;;0.93;0.85;;;;;;;24.07;64.60;154766.38;10540226;28;20044;-73
2023/07/30 09:18:05;;;;;;;1.48;1.10;;;;;;;24.36;61.66;154842.00;10544555;28;20040;-73
2023/07/30 09:23:09;;;;;;;1.20;1.10;;;;;;;24.60;60.72;154903.28;10547242;28;20089;-73
2023/07/30 09:28:11;;;;;;;1.38;0.95;;;;;;;24.14;65.17;154785.94;10520767;28;20490;-74
2023/07/30 09:33:18;;;;;;;1.00;1.00;;;;;;;24.48;64.69;154870.69;10545998;28;20097;-74
2023/07/30 09:38:20;;;;;;;0.98;0.98;;;;;;;24.71;60.93;154929.41;10564087;28;20061;-73
2023/07/30 09:43:28;;;;;;;1.10;0.93;;;;;;;24.71;62.02;154929.41;10588187;28;20119;-74
2023/07/30 09:48:32;;;;;;;0.85;0.85;;;;;;;24.81;61.31;154956.75;10570743;28;20044;-75
2023/07/30 09:53:37;;;;;;;1.30;0.80;;;;;;;24.92;58.70;154985.47;10589200;28;20044;-75
2023/07/30 09:58:42;;;;;;;1.55;1.13;;;;;;;25.06;58.04;155020.66;10587162;28;20043;-74
2023/07/30 10:03:44;;;;;;;0.80;0.80;;;;;;;25.08;58.79;155024.59;10568266;28;20047;-74
2023/07/30 10:08:46;;;;;;;1.00;0.70;;;;;;;24.87;57.90;154971.09;10569338;28;20047;-75
2023/07/30 10:13:49;;;;;;;1.00;0.90;;;;;;;24.70;58.23;154928.03;10587704;28;20039;-75
2023/07/30 10:18:59;;;;;;;3.70;1.00;;;;;;;24.64;58.15;154913.72;10586499;28;20486;-75
2023/07/30 10:24:03;;;;;;;1.00;0.75;;;;;;;24.23;62.33;154806.81;10586684;28;20063;-75
2023/07/30 10:29:20;;;;;;;1.17;0.80;;;;;;;24.52;59.39;154882.41;10586335;28;20096;-75
2023/07/30 10:34:27;;;;;;;1.10;1.00;;;;;;;24.24;58.81;154810.69;10568493;28;20044;-77
2023/07/30 10:39:29;;;;;;;1.48;0.80;;;;;;;24.15;60.55;154787.25;10585271;28;20497;-76
2023/07/30 10:44:33;;;;;;;1.08;0.98;;;;;;;24.29;57.71;154822.44;10586394;28;20040;-74
2023/07/30 10:49:40;;;;;;;0.75;0.75;;;;;;;24.61;59.58;154904.59;10585345;28;20050;-75
2023/07/30 10:54:42;;;;;;;0.80;0.80;;;;;;;25.19;55.23;155051.97;10585824;28;20545;-74
2023/07/30 10:59:46;;;;;;;0.60;0.60;;;;;;;26.37;51.60;155354.69;10566050;28;20047;-75
2023/07/30 11:04:48;;;;;;;0.52;0.52;;;;;;;27.05;48.89;155528.31;10566919;28;20046;-76
2023/07/30 11:10:01;;;;;;;0.63;0.63;;;;;;;27.42;46.63;155625.03;10587125;28;20043;-76
2023/07/30 11:15:03;;;;;;;0.70;0.70;;;;;;;27.03;47.75;155524.44;10585244;28;20077;-76
2023/07/30 11:20:07;;;;;;;2.05;0.60;;;;;;;27.25;44.07;155579.31;10565630;28;20135;-76
2023/07/30 11:25:19;;;;;;;0.40;0.40;;;;;;;27.32;45.47;155597.63;10566636;28;20048;-76
2023/07/30 11:30:22;;;;;;;0.77;0.50;;;;;;;27.50;43.94;155643.31;10585616;28;20051;-78
2023/07/30 11:35:24;;;;;;;0.45;0.45;;;;;;;27.91;44.16;155749.16;10587214;28;20043;-77
2023/07/30 11:40:26;;;;;;;0.40;0.40;;;;;;;28.19;41.72;155820.97;10586946;28;20047;-78
2023/07/30 11:45:28;;;;;;;0.40;0.40;;;;;;;28.03;40.49;155779.22;10585500;28;20127;-77
2023/07/30 11:50:45;;;;;;;0.73;0.40;;;;;;;28.24;41.47;155832.75;10586539;28;20051;-75
2023/07/30 11:55:48;;;;;;;0.57;0.28;;;;;;;28.27;40.27;155840.59;10566730;28;20040;-76
2023/07/30 12:00:50;;;;;;;0.52;0.52;;;;;;;28.62;40.48;155932.09;10585080;28;20088;-76
2023/07/30 12:05:51;;;;;;;0.43;0.40;;;;;;;28.24;38.58;155832.75;10565863;28;20481;-76
2023/07/30 12:10:55;;;;;;;0.40;0.40;;;;;;;28.23;38.91;155831.44;10567142;28;20044;-75
2023/07/30 12:15:57;;;;;;;0.80;0.50;;;;;;;28.47;37.34;155891.63;10584548;28;20133;-77
2023/07/30 12:20:59;;;;;;;0.50;0.32;;;;;;;28.49;36.65;155898.13;10567237;28;20048;-75
2023/07/30 12:26:04;;;;;;;1.95;0.60;;;;;;;28.41;37.52;155878.50;10564968;28;20546;-75
2023/07/30 12:31:06;;;;;;;0.33;0.30;;;;;;;27.88;37.36;155742.59;10583392;28;20042;-75
2023/07/30 12:36:08;;;;;;;0.52;0.40;;;;;;;27.74;40.07;155704.75;10566118;28;20501;-74
2023/07/30 12:41:10;;;;;;;0.40;0.40;;;;;;;27.70;38.43;155695.53;10563390;22;20048;-68
2023/07/30 12:46:12;;;;;;;0.30;0.30;;;;;;;27.33;41.09;155601.53;10538910;28;20036;-68
2023/07/30 12:51:14;;;;;;;0.47;0.38;;;;;;;27.27;40.78;155585.88;10542112;28;20044;-68
2023/07/30 12:56:16;;;;;;;0.40;0.40;;;;;;;27.06;40.73;155532.28;10548050;28;20043;-69
2023/07/30 13:01:17;;;;;;;0.40;0.40;;;;;;;26.84;41.88;155474.84;10547559;28;20047;-69
2023/07/30 13:06:20;;;;;;;0.43;0.40;;;;;;;26.70;39.63;155438.31;10547362;28;20040;-69
2023/07/30 13:11:22;;;;;;;0.40;0.28;;;;;;;26.62;41.82;155418.72;10529060;28;20052;-67
2023/07/30 13:16:24;;;;;;;1.25;0.40;;;;;;;26.40;41.13;155362.53;10547279;28;20032;-68
2023/07/30 13:21:26;;;;;;;0.40;0.40;;;;;;;26.61;42.04;155417.41;10547315;28;20051;-68
2023/07/30 13:26:28;;;;;;;1.05;0.30;;;;;;;26.87;41.05;155484.00;10546957;28;20036;-69
2023/07/30 13:31:30;;;;;;;0.40;0.40;;;;;;;27.12;41.67;155547.97;10550995;28;20040;-69
2023/07/30 13:36:32;;;;;;;0.45;0.43;;;;;;;27.19;41.98;155564.97;10564311;28;20044;-70
2023/07/30 13:41:34;;;;;;;0.30;0.30;;;;;;;26.85;41.18;155478.75;10574571;28;20050;-67
2023/07/30 13:46:40;;;;;;;0.30;0.30;;;;;;;26.79;39.80;155461.78;10530591;28;20084;-69
2023/07/30 13:51:42;;;;;;;0.38;0.38;;;;;;;26.99;39.02;155512.69;10578338;28;20044;-69
2023/07/30 13:56:44;;;;;;;0.88;0.40;;;;;;;27.02;39.39;155520.53;10527108;28;20044;-69
2023/07/30 14:01:46;;;;;;;0.30;0.30;;;;;;;26.87;40.21;155482.63;10543725;28;20044;-69
2023/07/30 14:06:48;;;;;;;0.85;0.57;;;;;;;26.82;39.22;155469.59;10568212;28;20126;-69
2023/07/30 14:11:50;;;;;;;0.77;0.40;;;;;;;26.79;39.68;155461.78;10567528;28;20209;-69
2023/07/30 14:16:52;;;;;;;0.73;0.30;;;;;;;27.40;39.78;155619.81;10579996;28;20036;-69
2023/07/30 14:21:56;;;;;;;0.30;0.30;;;;;;;27.23;39.96;155574.13;10543483;28;20074;-69
2023/07/30 14:26:58;;;;;;;0.40;0.40;;;;;;;26.94;39.11;155500.94;10543784;28;20044;-69
2023/07/30 14:32:00;;;;;;;0.40;0.30;;;;;;;26.22;41.12;155315.56;10543174;28;20090;-69
2023/07/30 14:37:02;;;;;;;0.85;0.50;;;;;;;25.77;41.66;155202.06;10542382;28;20109;-69
2023/07/30 14:42:04;;;;;;;0.88;0.55;;;;;;;25.49;41.78;155128.94;10490399;28;20448;-68
2023/07/30 14:47:08;;;;;;;0.70;0.70;;;;;;;25.11;43.33;155032.44;10483136;28;20044;-68
2023/07/30 14:52:10;;;;;;;1.15;0.68;;;;;;;24.87;44.19;154971.09;10515620;28;20047;-68
2023/07/30 14:57:12;;;;;;;0.80;0.80;;;;;;;24.72;48.98;154932.00;10542449;28;20051;-69
2023/07/30 15:02:13;;;;;;;1.15;0.75;;;;;;;24.34;50.25;154835.44;10542667;28;20060;-69
2023/07/30 15:07:16;;;;;;;1.15;0.95;;;;;;;23.80;58.22;154697.31;10541039;28;20040;-68
2023/07/30 15:12:18;;;;;;;4.15;0.90;;;;;;;22.29;69.65;154311.72;10542046;28;20055;-68
2023/07/30 15:17:20;;;;;;;4.78;0.90;;;;;;;20.25;94.85;153791.22;10541734;28;20062;-67
2023/07/30 15:22:21;;;;;;;2.15;1.02;;;;;;;19.18;100.00;153519.56;10540943;28;20048;-70
2023/07/30 15:27:23;;;;;;;1.13;0.82;;;;;;;19.00;100.00;153474.09;10540221;28;20066;-69
2023/07/30 15:32:28;;;;;;;1.02;0.70;;;;;;;18.97;100.00;153465.00;10540832;28;20520;-70
2023/07/30 15:37:32;;;;;;;0.93;0.80;;;;;;;19.20;100.00;153523.44;10522918;28;20052;-70
2023/07/30 15:42:34;;;;;;;1.98;0.80;;;;;;;19.22;100.00;153529.94;10483549;28;20041;-70
2023/07/30 15:47:35;;;;;;;1.05;0.95;;;;;;;19.31;100.00;153552.03;10498293;28;20106;-69
2023/07/30 15:52:37;;;;;;;1.48;1.10;;;;;;;19.47;100.00;153592.28;10510924;28;20139;-69
2023/07/30 15:57:39;;;;;;;5.53;2.85;;;;;;;19.26;100.00;153540.34;10539797;28;20032;-69
2023/07/30 16:02:45;;;;;;;1.15;0.88;;;;;;;19.49;100.00;153597.50;10539858;28;20119;-69
2023/07/30 16:07:47;;;;;;;2.23;1.10;;;;;;;19.34;100.00;153559.81;10538908;28;20048;-69
2023/07/30 16:12:52;;;;;;;1.20;1.00;;;;;;;19.43;100.00;153583.19;10539471;28;20376;-69
2023/07/30 16:17:54;;;;;;;1.73;1.00;;;;;;;19.41;100.00;153578.00;10520969;28;20046;-69
2023/07/30 16:22:56;;;;;;;1.10;1.00;;;;;;;19.53;100.00;153609.22;10539180;28;20063;-70
2023/07/30 16:27:57;;;;;;;1.15;0.93;;;;;;;19.45;100.00;153588.41;10543569;28;20107;-68
2023/07/30 16:32:59;;;;;;;2.05;1.38;;;;;;;19.73;100.00;153659.91;10548020;28;20059;-69
2023/07/30 16:38:01;;;;;;;3.65;1.70;;;;;;;19.54;100.00;153610.50;10547858;28;20044;-69
2023/07/30 16:43:03;;;;;;;2.13;1.65;;;;;;;19.70;100.00;153650.81;10589861;28;20104;-69
2023/07/30 16:48:04;;;;;;;1.55;1.45;;;;;;;19.60;100.00;153627.41;10589151;28;20115;-69
2023/07/30 16:53:07;;;;;;;1.83;1.17;;;;;;;19.84;100.00;153688.53;10547627;28;20041;-68
2023/07/30 16:58:08;;;;;;;1.45;0.70;;;;;;;19.65;100.00;153639.13;10547161;28;20055;-69
2023/07/30 17:03:10;;;;;;;0.82;0.70;;;;;;;19.47;100.00;153592.28;10528771;28;20101;-69
2023/07/30 17:08:13;;;;;;;0.93;0.60;;;;;;;19.19;100.00;153520.84;10546976;28;20036;-69
2023/07/30 17:13:15;;;;;;;0.50;0.30;;;;;;;18.94;100.00;153457.19;10528061;28;20052;-69
2023/07/30 17:18:17;;;;;;;0.65;0.65;;;;;;;18.73;100.00;153405.25;10546038;28;20042;-68
2023/07/30 17:23:18;;;;;;;0.85;0.60;;;;;;;18.54;100.00;153357.13;10546481;28;20531;-68
2023/07/30 17:28:20;;;;;;;0.65;0.50;;;;;;;18.25;100.00;153283.13;10545085;28;20546;-69
2023/07/30 17:33:22;;;;;;;1.55;0.75;;;;;;;18.09;100.00;153242.88;10545425;28;20043;-69
2023/07/30 17:38:24;;;;;;;0.77;0.60;;;;;;;17.94;100.00;153203.94;10545548;28;20056;-69
2023/07/30 17:43:26;;;;;;;0.63;0.50;;;;;;;17.84;100.00;153177.97;10544986;28;20040;-71
2023/07/30 17:48:28;;;;;;;0.98;0.90;;;;;;;17.80;100.00;153167.63;10544023;28;20044;-70
2023/07/30 17:53:30;;;;;;;1.58;1.02;;;;;;;17.91;100.00;153196.16;10544009;28;20044;-69
2023/07/30 17:58:31;;;;;;;1.10;1.02;;;;;;;17.97;100.00;153210.41;10525809;28;20078;-69
2023/07/30 18:03:34;;;;;;;0.93;0.80;;;;;;;17.88;100.00;153188.34;10543980;28;20497;-70
2023/07/30 18:08:36;;;;;;;1.63;0.90;;;;;;;17.85;100.00;153180.59;10545258;28;20043;-70
2023/07/30 18:13:38;;;;;;;1.00;0.90;;;;;;;17.83;100.00;153175.38;10543526;28;20515;-71
2023/07/30 18:18:40;;;;;;;1.48;0.93;;;;;;;17.80;100.00;153167.63;10544058;28;20075;-70
2023/07/30 18:23:41;;;;;;;1.58;0.98;;;;;;;17.71;100.00;153145.50;10544089;28;20044;-70
2023/07/30 18:28:45;;;;;;;1.55;0.70;;;;;;;17.87;100.00;153187.06;10545969;28;20493;-70
2023/07/30 18:33:47;;;;;;;2.30;0.98;;;;;;;17.86;96.94;153183.19;10537615;28;20044;-70
2023/07/30 18:38:49;;;;;;;1.13;0.73;;;;;;;17.63;98.92;153126.03;10569189;22;20123;-72
2023/07/30 18:43:51;;;;;;;1.08;0.70;;;;;;;17.44;100.00;153076.69;10545891;28;20377;-73
2023/07/30 18:48:54;;;;;;;1.98;0.85;;;;;;;17.35;100.00;153054.66;10527411;28;20041;-71
2023/07/30 18:53:56;;;;;;;1.38;0.80;;;;;;;17.12;100.00;152994.94;10467663;28;20201;-72
2023/07/30 18:58:58;;;;;;;1.77;1.20;;;;;;;16.93;100.00;152945.69;10479053;28;20123;-71
2023/07/30 19:04:01;;;;;;;2.40;1.48;;;;;;;16.92;100.00;152944.38;10445307;28;20091;-72
2023/07/30 19:09:03;;;;;;;2.20;1.13;;;;;;;16.84;100.00;152923.63;10516308;28;20052;-73
2023/07/30 19:14:05;;;;;;;1.50;1.30;;;;;;;16.69;100.00;152885.97;10510745;28;20078;-72
2023/07/30 19:19:08;;;;;;;2.00;1.20;;;;;;;16.62;100.00;152867.81;10545746;28;20044;-71
2023/07/30 19:24:10;;;;;;;2.05;1.05;;;;;;;16.86;96.03;152928.78;10526731;28;20044;-73
2023/07/30 19:29:12;;;;;;;2.50;1.27;;;;;;;16.69;99.01;152884.63;10479421;28;20085;-72
2023/07/30 19:34:15;;;;;;;1.90;1.20;;;;;;;16.84;94.87;152924.91;10468333;28;20048;-73
2023/07/30 19:39:17;;;;;;;1.92;1.23;;;;;;;16.83;94.22;152922.34;10502629;28;20071;-72
2023/07/30 19:44:19;;;;;;;1.65;1.10;;;;;;;16.73;94.43;152895.06;10471282;28;20041;-73
2023/07/30 19:49:23;;;;;;;1.80;1.13;;;;;;;16.79;92.40;152910.66;10424732;28;20052;-72
2023/07/30 19:54:25;;;;;;;2.90;1.15;;;;;;;16.81;91.40;152915.81;10459455;28;20041;-72
2023/07/30 19:59:27;;;;;;;2.08;1.50;;;;;;;16.52;95.98;152843.19;10442732;28;20049;-71
2023/07/30 20:04:29;;;;;;;2.30;1.30;;;;;;;16.57;91.69;152856.13;10499745;28;20043;-72
2023/07/30 20:09:31;;;;;;;2.00;1.40;;;;;;;16.76;89.24;152902.88;10483639;28;20045;-73
2023/07/30 20:14:33;;;;;;;2.67;1.40;;;;;;;16.61;92.91;152866.50;10500420;28;20040;-73
2023/07/30 20:19:35;;;;;;;1.90;1.10;;;;;;;16.39;95.34;152809.47;10500093;28;20041;-72
2023/07/30 20:24:37;;;;;;;1.15;1.10;;;;;;;16.47;93.38;152828.88;10505890;28;20040;-72
2023/07/30 20:29:39;;;;;;;3.08;1.23;;;;;;;16.47;92.61;152828.88;10540892;28;20073;-72
2023/07/30 20:34:40;;;;;;;1.80;1.20;;;;;;;16.14;94.28;152747.19;10541290;28;20127;-72
2023/07/30 20:39:42;;;;;;;1.88;1.15;;;;;;;16.16;95.34;152751.13;10540986;28;20048;-71
2023/07/30 20:44:44;;;;;;;1.48;1.27;;;;;;;15.96;96.43;152700.53;10542336;28;20067;-71
2023/07/30 20:49:46;;;;;;;2.33;1.23;;;;;;;15.81;97.01;152662.97;10541783;28;20040;-72
2023/07/30 20:54:48;;;;;;;2.15;1.42;;;;;;;15.76;92.32;152648.69;10540983;28;20526;-71
2023/07/30 20:59:51;;;;;;;2.63;1.25;;;;;;;15.84;94.53;152669.41;10521610;28;20051;-72
2023/07/30 21:04:53;;;;;;;3.13;1.98;;;;;;;15.85;93.45;152672.06;10541796;28;20126;-72
2023/07/30 21:09:54;;;;;;;2.67;1.08;;;;;;;16.07;88.49;152727.75;10523411;28;20048;-72
2023/07/30 21:14:56;;;;;;;1.75;1.20;;;;;;;16.35;82.61;152800.38;10547183;28;20063;-73
2023/07/30 21:19:58;;;;;;;2.47;1.00;;;;;;;16.58;81.19;152857.44;10548522;28;20082;-71
2023/07/30 21:25:00;;;;;;;2.08;1.00;;;;;;;16.81;77.52;152915.81;10548271;28;20040;-71
2023/07/30 21:30:02;;;;;;;2.63;0.93;;;;;;;17.05;75.68;152976.81;10548387;28;20040;-72
2023/07/30 21:35:04;;;;;;;1.58;0.90;;;;;;;17.06;74.70;152980.69;10548366;28;20382;-72
2023/07/30 21:40:07;;;;;;;2.40;1.10;;;;;;;17.00;75.02;152965.16;10548307;28;20154;-71
2023/07/30 21:45:09;;;;;;;3.40;1.00;;;;;;;17.15;72.43;153004.03;10548664;28;20044;-72
2023/07/30 21:50:11;;;;;;;2.33;0.90;;;;;;;17.14;72.53;153001.47;10548490;28;20056;-72
2023/07/30 21:55:13;;;;;;;2.78;0.80;;;;;;;17.11;71.88;152993.66;10547206;28;20040;-71
2023/07/30 22:00:14;;;;;;;1.20;0.80;;;;;;;17.14;71.76;153001.47;10546315;28;20104;-71
2023/07/30 22:05:16;;;;;;;2.72;1.10;;;;;;;17.23;70.92;153022.22;10547174;28;20043;-73
2023/07/30 22:10:19;;;;;;;2.75;0.85;;;;;;;17.20;71.17;153014.44;10548466;28;20390;-72
2023/07/30 22:15:21;;;;;;;1.83;0.85;;;;;;;17.27;70.95;153033.91;10545856;28;20097;-72
2023/07/30 22:20:23;;;;;;;3.33;0.90;;;;;;;17.27;70.98;153032.63;10528347;28;20055;-70
2023/07/30 22:25:25;;;;;;;1.30;0.70;;;;;;;17.21;70.36;153017.00;10528842;28;20439;-73
2023/07/30 22:30:26;;;;;;;1.88;0.80;;;;;;;17.20;70.80;153014.44;10547343;28;20078;-73
2023/07/30 22:35:28;;;;;;;1.35;0.75;;;;;;;17.20;70.33;153014.44;10545814;28;20044;-72
2023/07/30 22:40:30;;;;;;;2.90;0.70;;;;;;;17.00;71.79;152965.16;10525697;28;20390;-71
2023/07/30 22:45:32;;;;;;;2.75;0.88;;;;;;;17.06;71.50;152979.41;10544013;28;20040;-71
2023/07/30 22:50:33;;;;;;;2.78;0.80;;;;;;;16.96;71.53;152953.47;10545198;28;20122;-71
2023/07/30 22:55:35;;;;;;;2.28;0.93;;;;;;;16.92;71.91;152944.38;10544368;28;20036;-71
2023/07/30 23:00:37;;;;;;;2.20;0.70;;;;;;;16.88;71.96;152935.28;10544693;28;20074;-72
2023/07/30 23:05:39;;;;;;;1.55;0.90;;;;;;;16.89;72.41;152937.88;10544074;28;20044;-72